UAE49U ENGM-OMDB
Flight info
| Callsign | UAE49U |
|---|---|
| Flight time | 6h 32m |
| Altitude | 31000 |
| Route | OKSAT2C/19L OKSAT L996 GETPA/N0483F350 L727 NEGIL DCT RUMAR DCT EVGUR DCT KENIN DCT ARGES/N0478F370 DCT ARTAT UP975 ERGUN UL124 EVSAS UM688 RATVO M688 ULDUR/N0486F390 M688 SIDAD P975 SESRU M677 VUTEB |
| Aircraft | B77W/H-SDE1E2E3FGHIJ2J3J4J5M1RWXY/LB1D1 |
Departure
| Time | 2026-05-07 13:03 |
|---|---|
| Airport | Oslo-Gardermoen International Airport (ENGM) |
Arrival
| Time | 2026-05-07 19:36 |
|---|---|
| Airport | Dubai International Airport (OMDB) |
| Time | Latitude | Longitude | Altitude | Speed | Heading |
|---|---|---|---|---|---|
| 2026-05-07 13:03 | 60.02520 | 11.01829 | 6963 ft | 275 kts | 197° |
| 2026-05-07 13:03 | 60.00687 | 11.00760 | 6967 ft | 274 kts | 197° |
| 2026-05-07 13:03 | 59.98887 | 10.99694 | 6961 ft | 273 kts | 198° |
| 2026-05-07 13:03 | 59.97065 | 10.98614 | 6967 ft | 273 kts | 198° |
| 2026-05-07 13:04 | 59.95243 | 10.97536 | 6983 ft | 273 kts | 198° |
| 2026-05-07 13:04 | 59.93426 | 10.96588 | 6963 ft | 269 kts | 187° |
| 2026-05-07 13:04 | 59.91563 | 10.97042 | 6971 ft | 275 kts | 158° |
| 2026-05-07 13:04 | 59.89972 | 10.99202 | 6966 ft | 281 kts | 132° |
| 2026-05-07 13:05 | 59.88779 | 11.02276 | 6989 ft | 280 kts | 126° |
| 2026-05-07 13:05 | 59.87681 | 11.05461 | 7024 ft | 278 kts | 124° |
| 2026-05-07 13:05 | 59.86588 | 11.08647 | 7739 ft | 282 kts | 124° |
| 2026-05-07 13:05 | 59.85460 | 11.11895 | 8670 ft | 287 kts | 125° |
| 2026-05-07 13:06 | 59.84317 | 11.15192 | 9584 ft | 293 kts | 125° |
| 2026-05-07 13:06 | 59.83154 | 11.18565 | 10390 ft | 301 kts | 126° |
| 2026-05-07 13:06 | 59.81847 | 11.21943 | 10802 ft | 323 kts | 132° |
| 2026-05-07 13:06 | 59.80238 | 11.25333 | 11038 ft | 351 kts | 137° |
| 2026-05-07 13:07 | 59.78373 | 11.28745 | 11350 ft | 375 kts | 140° |
| 2026-05-07 13:07 | 59.76351 | 11.32110 | 12142 ft | 385 kts | 143° |
| 2026-05-07 13:07 | 59.74237 | 11.35426 | 13055 ft | 391 kts | 144° |
| 2026-05-07 13:07 | 59.72060 | 11.38721 | 14009 ft | 396 kts | 145° |
| 2026-05-07 13:08 | 59.69842 | 11.42015 | 14875 ft | 402 kts | 146° |
| 2026-05-07 13:08 | 59.67608 | 11.45301 | 15685 ft | 408 kts | 146° |
| 2026-05-07 13:08 | 59.65308 | 11.48672 | 16496 ft | 414 kts | 147° |
| 2026-05-07 13:08 | 59.62974 | 11.52083 | 17341 ft | 420 kts | 147° |
| 2026-05-07 13:09 | 59.60604 | 11.55549 | 18156 ft | 427 kts | 147° |
| 2026-05-07 13:09 | 59.58196 | 11.59067 | 18857 ft | 434 kts | 147° |
| 2026-05-07 13:09 | 59.55754 | 11.62631 | 19568 ft | 439 kts | 147° |
| 2026-05-07 13:09 | 59.53282 | 11.66233 | 20281 ft | 445 kts | 147° |
| 2026-05-07 13:10 | 59.50774 | 11.69881 | 20970 ft | 450 kts | 148° |
| 2026-05-07 13:10 | 59.48243 | 11.73558 | 21635 ft | 456 kts | 148° |
| 2026-05-07 13:10 | 59.45666 | 11.77294 | 22287 ft | 462 kts | 148° |
| 2026-05-07 13:10 | 59.43062 | 11.81062 | 22937 ft | 467 kts | 148° |
| 2026-05-07 13:11 | 59.40426 | 11.84871 | 23586 ft | 473 kts | 148° |
| 2026-05-07 13:11 | 59.37758 | 11.88716 | 24124 ft | 478 kts | 148° |
| 2026-05-07 13:11 | 59.35018 | 11.92208 | 24545 ft | 476 kts | 158° |
| 2026-05-07 13:11 | 59.31934 | 11.94438 | 25002 ft | 470 kts | 172° |
| 2026-05-07 13:12 | 59.28724 | 11.95376 | 25587 ft | 464 kts | 183° |
| 2026-05-07 13:12 | 59.25530 | 11.95149 | 26050 ft | 460 kts | 191° |
| 2026-05-07 13:12 | 59.22320 | 11.94666 | 26450 ft | 467 kts | 190° |
| 2026-05-07 13:12 | 59.19065 | 11.94237 | 26921 ft | 471 kts | 189° |
| 2026-05-07 13:13 | 59.17192 | 11.94017 | 27241 ft | 473 kts | 189° |
| 2026-05-07 13:13 | 59.14264 | 11.93698 | 27691 ft | 476 kts | 189° |
| 2026-05-07 13:13 | 59.10950 | 11.93355 | 28171 ft | 480 kts | 189° |
| 2026-05-07 13:13 | 59.07609 | 11.93010 | 28585 ft | 483 kts | 189° |
| 2026-05-07 13:14 | 59.04229 | 11.92654 | 28923 ft | 487 kts | 188° |
| 2026-05-07 13:14 | 59.00826 | 11.92291 | 29355 ft | 490 kts | 189° |
| 2026-05-07 13:14 | 58.97406 | 11.91920 | 29791 ft | 493 kts | 188° |
| 2026-05-07 13:14 | 58.93950 | 11.91955 | 30125 ft | 501 kts | 182° |
| 2026-05-07 13:15 | 58.90460 | 11.92446 | 30481 ft | 503 kts | 181° |
| 2026-05-07 13:15 | 58.86975 | 11.92974 | 30918 ft | 502 kts | 181° |
| 2026-05-07 13:15 | 58.83531 | 11.93478 | 31384 ft | 500 kts | 181° |
| 2026-05-07 13:15 | 58.80062 | 11.93952 | 31845 ft | 499 kts | 181° |
| 2026-05-07 13:16 | 58.76599 | 11.94397 | 32266 ft | 498 kts | 181° |
| 2026-05-07 13:16 | 58.73138 | 11.94828 | 32661 ft | 497 kts | 181° |
| 2026-05-07 13:16 | 58.69688 | 11.95255 | 33097 ft | 496 kts | 181° |
| 2026-05-07 13:16 | 58.66247 | 11.95684 | 33530 ft | 495 kts | 181° |
| 2026-05-07 13:17 | 58.62813 | 11.96112 | 33934 ft | 495 kts | 181° |
| 2026-05-07 13:17 | 58.59380 | 11.96762 | 34211 ft | 499 kts | 173° |
| 2026-05-07 13:17 | 58.56056 | 11.98886 | 34419 ft | 511 kts | 157° |
| 2026-05-07 13:17 | 58.53051 | 12.02579 | 34752 ft | 516 kts | 142° |
| 2026-05-07 13:18 | 58.50555 | 12.07503 | 35099 ft | 516 kts | 132° |
| 2026-05-07 13:18 | 58.48231 | 12.12770 | 35083 ft | 521 kts | 132° |
| 2026-05-07 13:18 | 58.43515 | 12.23266 | 35052 ft | 516 kts | 133° |
| 2026-05-07 13:19 | 58.38821 | 12.33380 | 35069 ft | 511 kts | 134° |
| 2026-05-07 13:19 | 58.34087 | 12.43450 | 35080 ft | 509 kts | 134° |
| 2026-05-07 13:20 | 58.29361 | 12.53485 | 35078 ft | 510 kts | 134° |
| 2026-05-07 13:20 | 58.24320 | 12.62925 | 35081 ft | 508 kts | 143° |
| 2026-05-07 13:21 | 58.18506 | 12.70476 | 35095 ft | 506 kts | 152° |
| 2026-05-07 13:21 | 58.12479 | 12.77422 | 35080 ft | 508 kts | 152° |
| 2026-05-07 13:22 | 58.06437 | 12.84436 | 35081 ft | 509 kts | 151° |
| 2026-05-07 13:22 | 58.00448 | 12.91422 | 35075 ft | 510 kts | 151° |
| 2026-05-07 13:23 | 57.94376 | 12.98494 | 35074 ft | 509 kts | 151° |
| 2026-05-07 13:23 | 57.88395 | 13.05433 | 35082 ft | 508 kts | 151° |
| 2026-05-07 13:24 | 57.82363 | 13.12395 | 35337 ft | 509 kts | 152° |
| 2026-05-07 13:24 | 57.79350 | 13.15864 | 35748 ft | 505 kts | 152° |
| 2026-05-07 13:24 | 57.76366 | 13.19293 | 36207 ft | 501 kts | 151° |
| 2026-05-07 13:25 | 57.73402 | 13.22693 | 36612 ft | 498 kts | 152° |
| 2026-05-07 13:25 | 57.70452 | 13.26070 | 36942 ft | 496 kts | 152° |
| 2026-05-07 13:25 | 57.64538 | 13.32811 | 37085 ft | 499 kts | 152° |
| 2026-05-07 13:26 | 57.58625 | 13.39530 | 37066 ft | 495 kts | 152° |
| 2026-05-07 13:26 | 57.52746 | 13.46185 | 37060 ft | 493 kts | 152° |
| 2026-05-07 13:27 | 57.46889 | 13.52790 | 37041 ft | 492 kts | 151° |
| 2026-05-07 13:27 | 57.41073 | 13.59324 | 37057 ft | 491 kts | 151° |
| 2026-05-07 13:28 | 57.35217 | 13.65879 | 37065 ft | 491 kts | 152° |
| 2026-05-07 13:28 | 57.29357 | 13.72411 | 37058 ft | 492 kts | 152° |
| 2026-05-07 13:29 | 57.23466 | 13.78955 | 37055 ft | 493 kts | 152° |
| 2026-05-07 13:29 | 57.17608 | 13.85438 | 37060 ft | 494 kts | 152° |
| 2026-05-07 13:30 | 57.11711 | 13.91939 | 37055 ft | 493 kts | 151° |
| 2026-05-07 13:30 | 57.05822 | 13.98409 | 37056 ft | 492 kts | 152° |
| 2026-05-07 13:31 | 56.99938 | 14.04848 | 37060 ft | 491 kts | 152° |
| 2026-05-07 13:31 | 56.94066 | 14.11250 | 37060 ft | 490 kts | 152° |
| 2026-05-07 13:32 | 56.88202 | 14.17620 | 37053 ft | 489 kts | 152° |
| 2026-05-07 13:32 | 56.82345 | 14.23958 | 37046 ft | 488 kts | 152° |
| 2026-05-07 13:33 | 56.76511 | 14.30248 | 37052 ft | 487 kts | 152° |
| 2026-05-07 13:33 | 56.70725 | 14.36465 | 37053 ft | 485 kts | 152° |
| 2026-05-07 13:34 | 56.62008 | 14.45788 | 37060 ft | 485 kts | 152° |
| 2026-05-07 13:35 | 56.56192 | 14.51980 | 37059 ft | 485 kts | 152° |
| 2026-05-07 13:35 | 56.50371 | 14.58153 | 37055 ft | 485 kts | 152° |
| 2026-05-07 13:36 | 56.44551 | 14.64307 | 37062 ft | 484 kts | 152° |
| 2026-05-07 13:36 | 56.38735 | 14.70433 | 37067 ft | 484 kts | 152° |
| 2026-05-07 13:37 | 56.32923 | 14.76533 | 37070 ft | 483 kts | 152° |
| 2026-05-07 13:37 | 56.27096 | 14.82626 | 37083 ft | 483 kts | 152° |
| 2026-05-07 13:38 | 56.21279 | 14.88688 | 37090 ft | 483 kts | 153° |
| 2026-05-07 13:38 | 56.15467 | 14.94723 | 37083 ft | 482 kts | 153° |
| 2026-05-07 13:39 | 56.09655 | 15.00737 | 37091 ft | 482 kts | 153° |
| 2026-05-07 13:39 | 56.03890 | 15.06683 | 37093 ft | 481 kts | 153° |
| 2026-05-07 13:40 | 55.98089 | 15.12643 | 37100 ft | 480 kts | 153° |
| 2026-05-07 13:40 | 55.92294 | 15.18577 | 37097 ft | 480 kts | 153° |
| 2026-05-07 13:41 | 55.86503 | 15.24485 | 37094 ft | 479 kts | 153° |
| 2026-05-07 13:41 | 55.80720 | 15.30366 | 37097 ft | 478 kts | 153° |
| 2026-05-07 13:42 | 55.74940 | 15.36224 | 37089 ft | 478 kts | 153° |
| 2026-05-07 13:42 | 55.69210 | 15.42011 | 37094 ft | 476 kts | 153° |
| 2026-05-07 13:43 | 55.63452 | 15.47806 | 37096 ft | 475 kts | 153° |
| 2026-05-07 13:43 | 55.57698 | 15.53577 | 37107 ft | 475 kts | 153° |
| 2026-05-07 13:44 | 55.51951 | 15.59322 | 37085 ft | 474 kts | 153° |
| 2026-05-07 13:44 | 55.46211 | 15.65041 | 37096 ft | 473 kts | 153° |
| 2026-05-07 13:45 | 55.40474 | 15.70737 | 37092 ft | 473 kts | 154° |
| 2026-05-07 13:45 | 55.34744 | 15.76408 | 37096 ft | 472 kts | 154° |
| 2026-05-07 13:46 | 55.29043 | 15.82030 | 37090 ft | 472 kts | 154° |
| 2026-05-07 13:46 | 55.23313 | 15.87663 | 37098 ft | 471 kts | 154° |
| 2026-05-07 13:47 | 55.17583 | 15.93278 | 37094 ft | 471 kts | 154° |
| 2026-05-07 13:47 | 55.11866 | 15.98861 | 37091 ft | 471 kts | 154° |
| 2026-05-07 13:48 | 55.06150 | 16.04428 | 37084 ft | 470 kts | 154° |
| 2026-05-07 13:48 | 55.01405 | 16.09078 | 37080 ft | 471 kts | 153° |
| 2026-05-07 13:49 | 54.95789 | 16.14940 | 37084 ft | 471 kts | 152° |
| 2026-05-07 13:49 | 54.90188 | 16.20883 | 37088 ft | 471 kts | 152° |
| 2026-05-07 13:50 | 54.84575 | 16.26782 | 37086 ft | 471 kts | 152° |
| 2026-05-07 13:50 | 54.78042 | 16.33579 | 37085 ft | 471 kts | 153° |
| 2026-05-07 13:51 | 54.73324 | 16.38462 | 37089 ft | 471 kts | 153° |
| 2026-05-07 13:51 | 54.67725 | 16.44240 | 37078 ft | 471 kts | 153° |
| 2026-05-07 13:52 | 54.62094 | 16.50033 | 37073 ft | 471 kts | 153° |
| 2026-05-07 13:52 | 54.56453 | 16.55818 | 37073 ft | 471 kts | 153° |
| 2026-05-07 13:53 | 54.50821 | 16.61575 | 37074 ft | 471 kts | 153° |
| 2026-05-07 13:53 | 54.45183 | 16.67320 | 37073 ft | 471 kts | 153° |
| 2026-05-07 13:54 | 54.39535 | 16.73056 | 37069 ft | 471 kts | 153° |
| 2026-05-07 13:54 | 54.33890 | 16.78772 | 37055 ft | 471 kts | 153° |
| 2026-05-07 13:55 | 54.28261 | 16.84453 | 37051 ft | 469 kts | 153° |
| 2026-05-07 13:55 | 54.22682 | 16.90066 | 37056 ft | 467 kts | 153° |
| 2026-05-07 13:56 | 54.17088 | 16.95676 | 37058 ft | 465 kts | 154° |
| 2026-05-07 13:56 | 54.11501 | 17.01259 | 37053 ft | 464 kts | 154° |
| 2026-05-07 13:57 | 54.05929 | 17.06810 | 37055 ft | 463 kts | 154° |
| 2026-05-07 13:57 | 54.00364 | 17.12339 | 37045 ft | 462 kts | 153° |
| 2026-05-07 13:58 | 53.94812 | 17.17836 | 37049 ft | 461 kts | 153° |
| 2026-05-07 13:58 | 53.89268 | 17.23309 | 37040 ft | 461 kts | 154° |
| 2026-05-07 13:59 | 53.83729 | 17.28759 | 37018 ft | 461 kts | 154° |
| 2026-05-07 13:59 | 53.78186 | 17.34196 | 37034 ft | 460 kts | 154° |
| 2026-05-07 14:00 | 53.72641 | 17.39618 | 37027 ft | 460 kts | 153° |
| 2026-05-07 14:00 | 53.67088 | 17.45033 | 37012 ft | 461 kts | 154° |
| 2026-05-07 14:01 | 53.61569 | 17.50397 | 37022 ft | 462 kts | 154° |
| 2026-05-07 14:01 | 53.55986 | 17.55807 | 37026 ft | 463 kts | 154° |
| 2026-05-07 14:02 | 53.50396 | 17.61206 | 37020 ft | 464 kts | 154° |
| 2026-05-07 14:02 | 53.44771 | 17.66625 | 37023 ft | 465 kts | 154° |
| 2026-05-07 14:03 | 53.39147 | 17.72024 | 37019 ft | 466 kts | 154° |
| 2026-05-07 14:03 | 53.33525 | 17.77408 | 37012 ft | 465 kts | 154° |
| 2026-05-07 14:04 | 53.27904 | 17.82772 | 37016 ft | 464 kts | 154° |
| 2026-05-07 14:04 | 53.22294 | 17.88109 | 37019 ft | 463 kts | 154° |
| 2026-05-07 14:05 | 53.16695 | 17.93418 | 37017 ft | 463 kts | 155° |
| 2026-05-07 14:05 | 53.11139 | 17.98673 | 37021 ft | 461 kts | 155° |
| 2026-05-07 14:06 | 53.05565 | 18.03927 | 37021 ft | 460 kts | 155° |
| 2026-05-07 14:06 | 52.99999 | 18.09160 | 37013 ft | 459 kts | 155° |
| 2026-05-07 14:07 | 52.94451 | 18.14359 | 37010 ft | 458 kts | 155° |
| 2026-05-07 14:07 | 52.88903 | 18.19542 | 37009 ft | 457 kts | 155° |
| 2026-05-07 14:08 | 52.83365 | 18.24701 | 37004 ft | 457 kts | 155° |
| 2026-05-07 14:08 | 52.77820 | 18.29851 | 37002 ft | 457 kts | 155° |
| 2026-05-07 14:09 | 52.72272 | 18.34988 | 36999 ft | 457 kts | 155° |
| 2026-05-07 14:09 | 52.66726 | 18.40110 | 36995 ft | 457 kts | 155° |
| 2026-05-07 14:10 | 52.61166 | 18.45228 | 36997 ft | 457 kts | 155° |
| 2026-05-07 14:10 | 52.55601 | 18.50336 | 36995 ft | 458 kts | 155° |
| 2026-05-07 14:11 | 52.50065 | 18.55403 | 36994 ft | 458 kts | 155° |
| 2026-05-07 14:11 | 52.44483 | 18.60497 | 36998 ft | 459 kts | 155° |
| 2026-05-07 14:12 | 52.38898 | 18.65579 | 36985 ft | 459 kts | 155° |
| 2026-05-07 14:12 | 52.33320 | 18.70641 | 36985 ft | 458 kts | 155° |
| 2026-05-07 14:13 | 52.27744 | 18.75687 | 36993 ft | 457 kts | 155° |
| 2026-05-07 14:13 | 52.22208 | 18.80680 | 36982 ft | 457 kts | 155° |
| 2026-05-07 14:14 | 52.16616 | 18.85709 | 36986 ft | 456 kts | 155° |
| 2026-05-07 14:14 | 52.11087 | 18.90668 | 36978 ft | 456 kts | 155° |
| 2026-05-07 14:15 | 52.05534 | 18.95634 | 36975 ft | 455 kts | 155° |
| 2026-05-07 14:15 | 51.99983 | 19.00585 | 36976 ft | 454 kts | 155° |
| 2026-05-07 14:16 | 51.94442 | 19.05513 | 36975 ft | 454 kts | 155° |
| 2026-05-07 14:16 | 51.88942 | 19.10389 | 36975 ft | 453 kts | 155° |
| 2026-05-07 14:17 | 51.83407 | 19.15283 | 36969 ft | 453 kts | 155° |
| 2026-05-07 14:17 | 51.77862 | 19.20172 | 36970 ft | 453 kts | 156° |
| 2026-05-07 14:18 | 51.72321 | 19.25043 | 36965 ft | 454 kts | 156° |
| 2026-05-07 14:18 | 51.66779 | 19.29903 | 36971 ft | 454 kts | 156° |
| 2026-05-07 14:19 | 51.61224 | 19.34760 | 36966 ft | 454 kts | 156° |
| 2026-05-07 14:19 | 51.55668 | 19.39605 | 36970 ft | 454 kts | 156° |
| 2026-05-07 14:20 | 51.50106 | 19.44440 | 36964 ft | 454 kts | 156° |
| 2026-05-07 14:20 | 51.44545 | 19.49263 | 36961 ft | 454 kts | 156° |
| 2026-05-07 14:21 | 51.38981 | 19.54074 | 36942 ft | 454 kts | 156° |
| 2026-05-07 14:21 | 51.33426 | 19.58866 | 36951 ft | 453 kts | 156° |
| 2026-05-07 14:22 | 51.27859 | 19.63632 | 36951 ft | 453 kts | 156° |
| 2026-05-07 14:22 | 51.22310 | 19.68286 | 36951 ft | 453 kts | 156° |
| 2026-05-07 14:23 | 51.16722 | 19.72949 | 36949 ft | 453 kts | 156° |
| 2026-05-07 14:23 | 51.11129 | 19.77614 | 36945 ft | 453 kts | 156° |
| 2026-05-07 14:24 | 51.05544 | 19.82266 | 36932 ft | 452 kts | 157° |
| 2026-05-07 14:24 | 51.00000 | 19.86874 | 36937 ft | 452 kts | 157° |
| 2026-05-07 14:25 | 50.94422 | 19.91497 | 36943 ft | 452 kts | 157° |
| 2026-05-07 14:25 | 50.88830 | 19.96118 | 36937 ft | 452 kts | 157° |
| 2026-05-07 14:26 | 50.83251 | 20.00716 | 36939 ft | 452 kts | 157° |
| 2026-05-07 14:26 | 50.77671 | 20.05303 | 36940 ft | 452 kts | 157° |
| 2026-05-07 14:27 | 50.72124 | 20.09850 | 36937 ft | 452 kts | 157° |
| 2026-05-07 14:27 | 50.66523 | 20.14428 | 36934 ft | 453 kts | 157° |
| 2026-05-07 14:28 | 50.60917 | 20.18999 | 36933 ft | 454 kts | 157° |
| 2026-05-07 14:28 | 50.55295 | 20.23570 | 36933 ft | 455 kts | 157° |
| 2026-05-07 14:29 | 50.49657 | 20.28143 | 36930 ft | 456 kts | 157° |
| 2026-05-07 14:29 | 50.44017 | 20.32704 | 36904 ft | 456 kts | 158° |
| 2026-05-07 14:30 | 50.38375 | 20.37256 | 36930 ft | 456 kts | 158° |
| 2026-05-07 14:30 | 50.32732 | 20.41794 | 36934 ft | 456 kts | 158° |
| 2026-05-07 14:31 | 50.27116 | 20.46300 | 36938 ft | 456 kts | 158° |
| 2026-05-07 14:31 | 50.21462 | 20.50824 | 36944 ft | 457 kts | 158° |
| 2026-05-07 14:32 | 50.15807 | 20.55336 | 36927 ft | 456 kts | 158° |
| 2026-05-07 14:32 | 50.10152 | 20.59838 | 36928 ft | 455 kts | 158° |
| 2026-05-07 14:33 | 50.04515 | 20.64312 | 36928 ft | 454 kts | 158° |
| 2026-05-07 14:33 | 49.98885 | 20.68769 | 36941 ft | 454 kts | 158° |
| 2026-05-07 14:34 | 49.94202 | 20.72466 | 36940 ft | 453 kts | 158° |
| 2026-05-07 14:34 | 49.88580 | 20.76895 | 36947 ft | 453 kts | 158° |
| 2026-05-07 14:35 | 49.82955 | 20.81314 | 36947 ft | 453 kts | 158° |
| 2026-05-07 14:35 | 49.77362 | 20.85697 | 36968 ft | 454 kts | 158° |
| 2026-05-07 14:36 | 49.71689 | 20.90125 | 36997 ft | 460 kts | 157° |
| 2026-05-07 14:36 | 49.65965 | 20.94603 | 36933 ft | 456 kts | 158° |
| 2026-05-07 14:37 | 49.60334 | 20.98983 | 36942 ft | 453 kts | 158° |
| 2026-05-07 14:37 | 49.51855 | 21.05542 | 36953 ft | 456 kts | 158° |
| 2026-05-07 14:38 | 49.46214 | 21.09897 | 36956 ft | 457 kts | 158° |
| 2026-05-07 14:38 | 49.40528 | 21.14279 | 36934 ft | 458 kts | 158° |
| 2026-05-07 14:39 | 49.34825 | 21.18662 | 36928 ft | 459 kts | 158° |
| 2026-05-07 14:39 | 49.29115 | 21.23038 | 36952 ft | 459 kts | 158° |
| 2026-05-07 14:40 | 49.23389 | 21.27416 | 36955 ft | 459 kts | 158° |
| 2026-05-07 14:40 | 49.17669 | 21.31778 | 36944 ft | 459 kts | 158° |
| 2026-05-07 14:41 | 49.11954 | 21.36124 | 36947 ft | 458 kts | 158° |
| 2026-05-07 14:41 | 49.06238 | 21.40460 | 36955 ft | 458 kts | 158° |
| 2026-05-07 14:42 | 49.00528 | 21.44780 | 36951 ft | 458 kts | 158° |
| 2026-05-07 14:42 | 48.94818 | 21.49089 | 36958 ft | 458 kts | 158° |
| 2026-05-07 14:43 | 48.89104 | 21.53390 | 36939 ft | 458 kts | 158° |
| 2026-05-07 14:43 | 48.83386 | 21.57682 | 36959 ft | 458 kts | 158° |
| 2026-05-07 14:44 | 48.77666 | 21.61966 | 36962 ft | 458 kts | 158° |
| 2026-05-07 14:44 | 48.71946 | 21.66238 | 36971 ft | 459 kts | 158° |
| 2026-05-07 14:45 | 48.66212 | 21.70510 | 36977 ft | 460 kts | 158° |
| 2026-05-07 14:45 | 48.60492 | 21.74761 | 36976 ft | 461 kts | 158° |
| 2026-05-07 14:46 | 48.54736 | 21.79028 | 36979 ft | 461 kts | 158° |
| 2026-05-07 14:46 | 48.48963 | 21.83298 | 36989 ft | 461 kts | 158° |
| 2026-05-07 14:47 | 48.43199 | 21.87551 | 36988 ft | 461 kts | 158° |
| 2026-05-07 14:47 | 48.37470 | 21.91926 | 36990 ft | 464 kts | 153° |
| 2026-05-07 14:48 | 48.32198 | 21.97606 | 36994 ft | 470 kts | 144° |
| 2026-05-07 14:48 | 48.27228 | 22.03974 | 36999 ft | 469 kts | 144° |
| 2026-05-07 14:49 | 48.22255 | 22.10319 | 37013 ft | 469 kts | 144° |
| 2026-05-07 14:49 | 48.17296 | 22.16588 | 37010 ft | 470 kts | 144° |
| 2026-05-07 14:50 | 48.12297 | 22.22899 | 37015 ft | 470 kts | 143° |
| 2026-05-07 14:50 | 48.07568 | 22.29734 | 37002 ft | 473 kts | 139° |
| 2026-05-07 14:51 | 48.02931 | 22.36736 | 37030 ft | 473 kts | 139° |
| 2026-05-07 14:51 | 47.98280 | 22.43702 | 37014 ft | 473 kts | 140° |
| 2026-05-07 14:52 | 47.93602 | 22.50623 | 37009 ft | 474 kts | 140° |
| 2026-05-07 14:52 | 47.88940 | 22.57472 | 37009 ft | 474 kts | 140° |
| 2026-05-07 14:53 | 47.84231 | 22.64368 | 37015 ft | 474 kts | 140° |
| 2026-05-07 14:53 | 47.79520 | 22.71251 | 37025 ft | 476 kts | 140° |
| 2026-05-07 14:54 | 47.74792 | 22.78141 | 37022 ft | 476 kts | 140° |
| 2026-05-07 14:54 | 47.70052 | 22.85033 | 37002 ft | 476 kts | 140° |
| 2026-05-07 14:55 | 47.65309 | 22.91910 | 37015 ft | 477 kts | 140° |
| 2026-05-07 14:55 | 47.60553 | 22.98788 | 37019 ft | 477 kts | 140° |
| 2026-05-07 14:56 | 47.55795 | 23.05649 | 37025 ft | 477 kts | 140° |
| 2026-05-07 14:56 | 47.51032 | 23.12500 | 37014 ft | 478 kts | 140° |
| 2026-05-07 14:57 | 47.46253 | 23.19354 | 37008 ft | 478 kts | 140° |
| 2026-05-07 14:57 | 47.41478 | 23.26186 | 37025 ft | 479 kts | 140° |
| 2026-05-07 14:58 | 47.36707 | 23.32992 | 37016 ft | 480 kts | 140° |
| 2026-05-07 14:58 | 47.31902 | 23.39831 | 37006 ft | 480 kts | 140° |
| 2026-05-07 14:59 | 47.27091 | 23.46659 | 37005 ft | 480 kts | 140° |
| 2026-05-07 14:59 | 47.22278 | 23.53471 | 37013 ft | 480 kts | 140° |
| 2026-05-07 15:00 | 47.17463 | 23.60268 | 37004 ft | 480 kts | 140° |
| 2026-05-07 15:00 | 47.12639 | 23.67060 | 37006 ft | 481 kts | 140° |
| 2026-05-07 15:01 | 47.07805 | 23.73848 | 37004 ft | 481 kts | 140° |
| 2026-05-07 15:01 | 47.02966 | 23.80627 | 37010 ft | 481 kts | 140° |
| 2026-05-07 15:02 | 46.98114 | 23.87403 | 37000 ft | 482 kts | 140° |
| 2026-05-07 15:02 | 46.93258 | 23.94169 | 37000 ft | 481 kts | 140° |
| 2026-05-07 15:03 | 46.88407 | 24.00911 | 37001 ft | 481 kts | 140° |
| 2026-05-07 15:03 | 46.83578 | 24.07603 | 36998 ft | 481 kts | 140° |
| 2026-05-07 15:04 | 46.78714 | 24.14326 | 36990 ft | 481 kts | 140° |
| 2026-05-07 15:04 | 46.73843 | 24.21041 | 36986 ft | 482 kts | 140° |
| 2026-05-07 15:05 | 46.68967 | 24.27744 | 36975 ft | 482 kts | 140° |
| 2026-05-07 15:05 | 46.64085 | 24.34442 | 36983 ft | 482 kts | 140° |
| 2026-05-07 15:06 | 46.59192 | 24.41136 | 36992 ft | 483 kts | 140° |
| 2026-05-07 15:06 | 46.54314 | 24.47789 | 36993 ft | 484 kts | 140° |
| 2026-05-07 15:07 | 46.49394 | 24.54485 | 36991 ft | 484 kts | 140° |
| 2026-05-07 15:07 | 46.44474 | 24.61162 | 36992 ft | 485 kts | 140° |
| 2026-05-07 15:08 | 46.39550 | 24.67829 | 36990 ft | 485 kts | 140° |
| 2026-05-07 15:08 | 46.34621 | 24.74484 | 36991 ft | 485 kts | 140° |
| 2026-05-07 15:09 | 46.29663 | 24.81161 | 36981 ft | 487 kts | 141° |
| 2026-05-07 15:09 | 46.24723 | 24.87796 | 36975 ft | 488 kts | 141° |
| 2026-05-07 15:10 | 46.19719 | 24.94502 | 36986 ft | 487 kts | 141° |
| 2026-05-07 15:10 | 46.14780 | 25.01103 | 36990 ft | 486 kts | 141° |
| 2026-05-07 15:11 | 46.09815 | 25.07721 | 36995 ft | 486 kts | 140° |
| 2026-05-07 15:11 | 46.04840 | 25.14335 | 36999 ft | 488 kts | 140° |
| 2026-05-07 15:12 | 45.99854 | 25.20946 | 36996 ft | 487 kts | 140° |
| 2026-05-07 15:12 | 45.94875 | 25.27533 | 37002 ft | 485 kts | 141° |
| 2026-05-07 15:13 | 45.89906 | 25.34088 | 37011 ft | 484 kts | 140° |
| 2026-05-07 15:13 | 45.84936 | 25.40627 | 37014 ft | 484 kts | 140° |
| 2026-05-07 15:14 | 45.79963 | 25.47155 | 37024 ft | 484 kts | 140° |
| 2026-05-07 15:14 | 45.75026 | 25.53620 | 37026 ft | 485 kts | 140° |
| 2026-05-07 15:15 | 45.70033 | 25.60140 | 37010 ft | 486 kts | 140° |
| 2026-05-07 15:15 | 45.65032 | 25.66655 | 37023 ft | 486 kts | 140° |
| 2026-05-07 15:16 | 45.60015 | 25.73174 | 37034 ft | 488 kts | 140° |
| 2026-05-07 15:16 | 45.54985 | 25.79694 | 37049 ft | 489 kts | 140° |
| 2026-05-07 15:17 | 45.49944 | 25.86212 | 37043 ft | 490 kts | 140° |
| 2026-05-07 15:17 | 45.44887 | 25.92733 | 37041 ft | 491 kts | 140° |
| 2026-05-07 15:18 | 45.39818 | 25.99253 | 37050 ft | 491 kts | 140° |
| 2026-05-07 15:18 | 45.34736 | 26.05774 | 37044 ft | 491 kts | 140° |
| 2026-05-07 15:19 | 45.29654 | 26.12277 | 37052 ft | 492 kts | 140° |
| 2026-05-07 15:19 | 45.24590 | 26.18735 | 37053 ft | 493 kts | 140° |
| 2026-05-07 15:20 | 45.19478 | 26.25245 | 37046 ft | 493 kts | 140° |
| 2026-05-07 15:20 | 45.15196 | 26.30693 | 37051 ft | 493 kts | 140° |
| 2026-05-07 15:21 | 45.10115 | 26.37137 | 37046 ft | 494 kts | 140° |
| 2026-05-07 15:21 | 45.04984 | 26.43627 | 37037 ft | 495 kts | 140° |
| 2026-05-07 15:22 | 44.99845 | 26.50105 | 37039 ft | 494 kts | 141° |
| 2026-05-07 15:22 | 44.94680 | 26.56520 | 37039 ft | 495 kts | 141° |
| 2026-05-07 15:23 | 44.89516 | 26.62966 | 37044 ft | 495 kts | 141° |
| 2026-05-07 15:23 | 44.84356 | 26.69438 | 37047 ft | 496 kts | 141° |
| 2026-05-07 15:24 | 44.79198 | 26.75893 | 37046 ft | 497 kts | 141° |
| 2026-05-07 15:24 | 44.74018 | 26.82350 | 37041 ft | 498 kts | 141° |
| 2026-05-07 15:25 | 44.68863 | 26.88755 | 37050 ft | 498 kts | 141° |
| 2026-05-07 15:25 | 44.63659 | 26.95205 | 37053 ft | 499 kts | 141° |
| 2026-05-07 15:26 | 44.58443 | 27.01654 | 37052 ft | 499 kts | 141° |
| 2026-05-07 15:26 | 44.53229 | 27.08086 | 37053 ft | 500 kts | 141° |
| 2026-05-07 15:27 | 44.48009 | 27.14508 | 37049 ft | 499 kts | 141° |
| 2026-05-07 15:27 | 44.42788 | 27.20915 | 37047 ft | 499 kts | 142° |
| 2026-05-07 15:28 | 44.37565 | 27.27307 | 37049 ft | 499 kts | 141° |
| 2026-05-07 15:28 | 44.32335 | 27.33693 | 37057 ft | 499 kts | 141° |
| 2026-05-07 15:29 | 44.27108 | 27.40061 | 37059 ft | 499 kts | 141° |
| 2026-05-07 15:29 | 44.21873 | 27.46422 | 37057 ft | 500 kts | 141° |
| 2026-05-07 15:30 | 44.16621 | 27.52788 | 37072 ft | 501 kts | 141° |
| 2026-05-07 15:30 | 44.11360 | 27.59150 | 37075 ft | 502 kts | 141° |
| 2026-05-07 15:31 | 44.06075 | 27.65525 | 37071 ft | 503 kts | 142° |
| 2026-05-07 15:31 | 44.00773 | 27.71905 | 37076 ft | 504 kts | 141° |
| 2026-05-07 15:32 | 43.95459 | 27.78284 | 37078 ft | 505 kts | 141° |
| 2026-05-07 15:32 | 43.90137 | 27.84658 | 37081 ft | 505 kts | 141° |
| 2026-05-07 15:33 | 43.84840 | 27.90985 | 37083 ft | 506 kts | 141° |
| 2026-05-07 15:33 | 43.79507 | 27.97339 | 37091 ft | 506 kts | 141° |
| 2026-05-07 15:34 | 43.74161 | 28.03694 | 37098 ft | 507 kts | 141° |
| 2026-05-07 15:34 | 43.68811 | 28.10038 | 37101 ft | 507 kts | 141° |
| 2026-05-07 15:35 | 43.63447 | 28.16381 | 37098 ft | 508 kts | 141° |
| 2026-05-07 15:35 | 43.58075 | 28.22721 | 37109 ft | 508 kts | 141° |
| 2026-05-07 15:36 | 43.52698 | 28.29053 | 37108 ft | 508 kts | 141° |
| 2026-05-07 15:36 | 43.47311 | 28.35377 | 37112 ft | 509 kts | 141° |
| 2026-05-07 15:37 | 43.41910 | 28.41703 | 37121 ft | 509 kts | 141° |
| 2026-05-07 15:37 | 43.36501 | 28.48025 | 37125 ft | 510 kts | 141° |
| 2026-05-07 15:38 | 43.31082 | 28.54342 | 37135 ft | 511 kts | 141° |
| 2026-05-07 15:38 | 43.25653 | 28.60656 | 37128 ft | 512 kts | 141° |
| 2026-05-07 15:39 | 43.20219 | 28.66961 | 37120 ft | 512 kts | 141° |
| 2026-05-07 15:39 | 43.14769 | 28.73269 | 37122 ft | 512 kts | 141° |
| 2026-05-07 15:40 | 43.09355 | 28.79520 | 37125 ft | 513 kts | 141° |
| 2026-05-07 15:40 | 43.03895 | 28.85808 | 37136 ft | 513 kts | 141° |
| 2026-05-07 15:41 | 42.98419 | 28.92101 | 37122 ft | 514 kts | 141° |
| 2026-05-07 15:41 | 42.92939 | 28.98383 | 37137 ft | 514 kts | 141° |
| 2026-05-07 15:42 | 42.87443 | 29.04669 | 37140 ft | 515 kts | 141° |
| 2026-05-07 15:42 | 42.81944 | 29.10944 | 37128 ft | 515 kts | 141° |
| 2026-05-07 15:43 | 42.76438 | 29.17212 | 37122 ft | 516 kts | 141° |
| 2026-05-07 15:43 | 42.70924 | 29.23474 | 37126 ft | 516 kts | 141° |
| 2026-05-07 15:44 | 42.65418 | 29.29714 | 37128 ft | 515 kts | 141° |
| 2026-05-07 15:44 | 42.59907 | 29.35945 | 37127 ft | 515 kts | 141° |
| 2026-05-07 15:45 | 42.54432 | 29.42121 | 37128 ft | 515 kts | 141° |
| 2026-05-07 15:45 | 42.48915 | 29.48338 | 37131 ft | 516 kts | 141° |
| 2026-05-07 15:46 | 42.40630 | 29.57670 | 37130 ft | 514 kts | 138° |
| 2026-05-07 15:46 | 42.38152 | 29.61159 | 37115 ft | 513 kts | 127° |
| 2026-05-07 15:47 | 42.36141 | 29.65055 | 37128 ft | 511 kts | 119° |
| 2026-05-07 15:47 | 42.33318 | 29.73803 | 37154 ft | 507 kts | 106° |
| 2026-05-07 15:48 | 42.31094 | 29.82891 | 37134 ft | 509 kts | 106° |
| 2026-05-07 15:48 | 42.28841 | 29.91987 | 37139 ft | 512 kts | 106° |
| 2026-05-07 15:49 | 42.26531 | 30.01086 | 37131 ft | 512 kts | 107° |
| 2026-05-07 15:49 | 42.24191 | 30.10191 | 37128 ft | 512 kts | 107° |
| 2026-05-07 15:50 | 42.21863 | 30.19216 | 37138 ft | 512 kts | 107° |
| 2026-05-07 15:50 | 42.19519 | 30.28285 | 37127 ft | 511 kts | 107° |
| 2026-05-07 15:51 | 42.17203 | 30.37336 | 37127 ft | 510 kts | 106° |
| 2026-05-07 15:51 | 42.14876 | 30.46373 | 37148 ft | 509 kts | 106° |
| 2026-05-07 15:52 | 42.12513 | 30.55384 | 37137 ft | 509 kts | 107° |
| 2026-05-07 15:52 | 42.10150 | 30.64363 | 37125 ft | 508 kts | 107° |
| 2026-05-07 15:53 | 42.07798 | 30.73285 | 37129 ft | 508 kts | 107° |
| 2026-05-07 15:53 | 42.05431 | 30.82244 | 37139 ft | 508 kts | 107° |
| 2026-05-07 15:54 | 42.03056 | 30.91199 | 37132 ft | 507 kts | 107° |
| 2026-05-07 15:54 | 42.00678 | 31.00135 | 37134 ft | 507 kts | 107° |
| 2026-05-07 15:55 | 41.98291 | 31.09053 | 37143 ft | 507 kts | 107° |
| 2026-05-07 15:55 | 41.95892 | 31.17959 | 37125 ft | 507 kts | 107° |
| 2026-05-07 15:56 | 41.93488 | 31.26858 | 37123 ft | 507 kts | 107° |
| 2026-05-07 15:56 | 41.91092 | 31.35698 | 37140 ft | 506 kts | 107° |
| 2026-05-07 15:57 | 41.88676 | 31.44583 | 37127 ft | 507 kts | 107° |
| 2026-05-07 15:57 | 41.86253 | 31.53461 | 37125 ft | 507 kts | 107° |
| 2026-05-07 15:58 | 41.83823 | 31.62341 | 37129 ft | 507 kts | 107° |
| 2026-05-07 15:58 | 41.81403 | 31.71239 | 37139 ft | 507 kts | 107° |
| 2026-05-07 15:59 | 41.78993 | 31.80142 | 37130 ft | 508 kts | 107° |
| 2026-05-07 15:59 | 41.76520 | 31.89007 | 37130 ft | 508 kts | 108° |
| 2026-05-07 16:00 | 41.74055 | 31.97822 | 37132 ft | 508 kts | 107° |
| 2026-05-07 16:00 | 41.71578 | 32.06686 | 37138 ft | 508 kts | 107° |
| 2026-05-07 16:01 | 41.69091 | 32.15557 | 37137 ft | 508 kts | 108° |
| 2026-05-07 16:01 | 41.66591 | 32.24401 | 37138 ft | 508 kts | 108° |
| 2026-05-07 16:02 | 41.64121 | 32.33284 | 37141 ft | 509 kts | 107° |
| 2026-05-07 16:02 | 41.61651 | 32.42087 | 37137 ft | 509 kts | 108° |
| 2026-05-07 16:03 | 41.59148 | 32.50935 | 37145 ft | 509 kts | 108° |
| 2026-05-07 16:03 | 41.56640 | 32.59766 | 37159 ft | 509 kts | 108° |
| 2026-05-07 16:04 | 41.54119 | 32.68600 | 37152 ft | 509 kts | 108° |
| 2026-05-07 16:04 | 41.51594 | 32.77427 | 37143 ft | 509 kts | 108° |
| 2026-05-07 16:05 | 41.49473 | 32.84818 | 37142 ft | 509 kts | 108° |
| 2026-05-07 16:05 | 41.46950 | 32.93585 | 37144 ft | 509 kts | 108° |
| 2026-05-07 16:06 | 41.44180 | 33.02273 | 37135 ft | 512 kts | 116° |
| 2026-05-07 16:06 | 41.40692 | 33.10552 | 37134 ft | 512 kts | 117° |
| 2026-05-07 16:07 | 41.37199 | 33.18831 | 37146 ft | 512 kts | 116° |
| 2026-05-07 16:07 | 41.33769 | 33.27147 | 37130 ft | 512 kts | 116° |
| 2026-05-07 16:08 | 41.30460 | 33.35459 | 37141 ft | 512 kts | 115° |
| 2026-05-07 16:08 | 41.27100 | 33.43874 | 37148 ft | 512 kts | 115° |
| 2026-05-07 16:09 | 41.23788 | 33.52252 | 37137 ft | 512 kts | 115° |
| 2026-05-07 16:09 | 41.20473 | 33.60630 | 37139 ft | 512 kts | 115° |
| 2026-05-07 16:10 | 41.17162 | 33.68959 | 37145 ft | 513 kts | 115° |
| 2026-05-07 16:10 | 41.13827 | 33.77316 | 37133 ft | 512 kts | 116° |
| 2026-05-07 16:11 | 41.10486 | 33.85665 | 37130 ft | 512 kts | 116° |
| 2026-05-07 16:11 | 41.07134 | 33.94017 | 37134 ft | 511 kts | 116° |
| 2026-05-07 16:12 | 41.03817 | 34.02258 | 37123 ft | 509 kts | 116° |
| 2026-05-07 16:12 | 41.00481 | 34.10525 | 37132 ft | 509 kts | 116° |
| 2026-05-07 16:13 | 40.97132 | 34.18803 | 37138 ft | 510 kts | 116° |
| 2026-05-07 16:13 | 40.93773 | 34.27081 | 37118 ft | 511 kts | 116° |
| 2026-05-07 16:14 | 40.90405 | 34.35356 | 37121 ft | 511 kts | 116° |
| 2026-05-07 16:14 | 40.87031 | 34.43626 | 37119 ft | 511 kts | 116° |
| 2026-05-07 16:15 | 40.83649 | 34.51892 | 37115 ft | 511 kts | 116° |
| 2026-05-07 16:15 | 40.80262 | 34.60147 | 37107 ft | 512 kts | 116° |
| 2026-05-07 16:16 | 40.76883 | 34.68365 | 37129 ft | 513 kts | 116° |
| 2026-05-07 16:16 | 40.73879 | 34.76880 | 37120 ft | 510 kts | 107° |
| 2026-05-07 16:17 | 40.71875 | 34.85826 | 37116 ft | 509 kts | 103° |
| 2026-05-07 16:17 | 40.71767 | 34.86334 | 37115 ft | 509 kts | 103° |
| 2026-05-07 16:19 | 40.69914 | 34.94972 | 37126 ft | 508 kts | 103° |
| 2026-05-07 16:19 | 40.67954 | 35.03911 | 37123 ft | 508 kts | 104° |
| 2026-05-07 16:20 | 40.65962 | 35.12841 | 37123 ft | 507 kts | 104° |
| 2026-05-07 16:20 | 40.63963 | 35.21740 | 37117 ft | 507 kts | 104° |
| 2026-05-07 16:21 | 40.61955 | 35.30648 | 37118 ft | 507 kts | 104° |
| 2026-05-07 16:21 | 40.59947 | 35.39533 | 37120 ft | 507 kts | 104° |
| 2026-05-07 16:22 | 40.57939 | 35.48382 | 37100 ft | 507 kts | 104° |
| 2026-05-07 16:22 | 40.55912 | 35.57279 | 37113 ft | 507 kts | 104° |
| 2026-05-07 16:23 | 40.53878 | 35.66169 | 37108 ft | 507 kts | 104° |
| 2026-05-07 16:23 | 40.51837 | 35.75057 | 37111 ft | 508 kts | 104° |
| 2026-05-07 16:24 | 40.49792 | 35.83928 | 37123 ft | 508 kts | 104° |
| 2026-05-07 16:24 | 40.47738 | 35.92804 | 37131 ft | 508 kts | 104° |
| 2026-05-07 16:25 | 40.45675 | 36.01681 | 37127 ft | 508 kts | 104° |
| 2026-05-07 16:25 | 40.43606 | 36.10550 | 37132 ft | 508 kts | 104° |
| 2026-05-07 16:26 | 40.41541 | 36.19365 | 37132 ft | 508 kts | 105° |
| 2026-05-07 16:26 | 40.39459 | 36.28225 | 37141 ft | 507 kts | 105° |
| 2026-05-07 16:27 | 40.37373 | 36.37064 | 37136 ft | 507 kts | 105° |
| 2026-05-07 16:27 | 40.35279 | 36.45905 | 37134 ft | 507 kts | 105° |
| 2026-05-07 16:28 | 40.33182 | 36.54722 | 37139 ft | 506 kts | 105° |
| 2026-05-07 16:28 | 40.31083 | 36.63514 | 37144 ft | 504 kts | 105° |
| 2026-05-07 16:29 | 40.28998 | 36.72217 | 37145 ft | 503 kts | 105° |
| 2026-05-07 16:29 | 40.26899 | 36.80943 | 37159 ft | 502 kts | 106° |
| 2026-05-07 16:30 | 40.24798 | 36.89645 | 37147 ft | 501 kts | 105° |
| 2026-05-07 16:30 | 40.22715 | 36.98294 | 37157 ft | 501 kts | 105° |
| 2026-05-07 16:31 | 40.20595 | 37.07023 | 37166 ft | 501 kts | 106° |
| 2026-05-07 16:31 | 40.18467 | 37.15696 | 37167 ft | 501 kts | 106° |
| 2026-05-07 16:32 | 40.16330 | 37.24386 | 37163 ft | 502 kts | 106° |
| 2026-05-07 16:32 | 40.14195 | 37.33076 | 37165 ft | 502 kts | 106° |
| 2026-05-07 16:33 | 40.12859 | 37.38501 | 37162 ft | 503 kts | 107° |
| 2026-05-07 16:33 | 40.10709 | 37.47193 | 37163 ft | 503 kts | 107° |
| 2026-05-07 16:34 | 40.08549 | 37.55899 | 37155 ft | 503 kts | 107° |
| 2026-05-07 16:34 | 40.06236 | 37.64527 | 37159 ft | 503 kts | 109° |
| 2026-05-07 16:35 | 40.03706 | 37.72993 | 37161 ft | 504 kts | 110° |
| 2026-05-07 16:35 | 40.01150 | 37.81509 | 37158 ft | 504 kts | 110° |
| 2026-05-07 16:36 | 39.98631 | 37.90032 | 37152 ft | 504 kts | 110° |
| 2026-05-07 16:36 | 39.96127 | 37.98549 | 37149 ft | 504 kts | 110° |
| 2026-05-07 16:37 | 39.93612 | 38.07079 | 37164 ft | 504 kts | 110° |
| 2026-05-07 16:37 | 39.91086 | 38.15612 | 37166 ft | 505 kts | 110° |
| 2026-05-07 16:38 | 39.88553 | 38.24137 | 37164 ft | 506 kts | 110° |
| 2026-05-07 16:38 | 39.86003 | 38.32689 | 37164 ft | 506 kts | 110° |
| 2026-05-07 16:39 | 39.83462 | 38.41185 | 37158 ft | 507 kts | 110° |
| 2026-05-07 16:39 | 39.80897 | 38.49733 | 37170 ft | 507 kts | 111° |
| 2026-05-07 16:40 | 39.78324 | 38.58284 | 37159 ft | 507 kts | 111° |
| 2026-05-07 16:40 | 39.75748 | 38.66817 | 37162 ft | 507 kts | 111° |
| 2026-05-07 16:41 | 39.73166 | 38.75339 | 37162 ft | 507 kts | 111° |
| 2026-05-07 16:41 | 39.70580 | 38.83849 | 37163 ft | 507 kts | 111° |
| 2026-05-07 16:42 | 39.67986 | 38.92360 | 37163 ft | 506 kts | 111° |
| 2026-05-07 16:42 | 39.65406 | 39.00797 | 37167 ft | 506 kts | 111° |
| 2026-05-07 16:43 | 39.62804 | 39.09282 | 37165 ft | 506 kts | 112° |
| 2026-05-07 16:43 | 39.60193 | 39.17766 | 37161 ft | 506 kts | 112° |
| 2026-05-07 16:44 | 39.57577 | 39.26242 | 37162 ft | 506 kts | 112° |
| 2026-05-07 16:44 | 39.54952 | 39.34724 | 37150 ft | 507 kts | 112° |
| 2026-05-07 16:45 | 39.52321 | 39.43199 | 37155 ft | 507 kts | 112° |
| 2026-05-07 16:45 | 39.49861 | 39.51765 | 37159 ft | 508 kts | 109° |
| 2026-05-07 16:46 | 39.47656 | 39.60465 | 37147 ft | 508 kts | 109° |
| 2026-05-07 16:46 | 39.45450 | 39.69172 | 37152 ft | 509 kts | 109° |
| 2026-05-07 16:47 | 39.43224 | 39.77818 | 37147 ft | 510 kts | 109° |
| 2026-05-07 16:47 | 39.40964 | 39.86527 | 37142 ft | 511 kts | 109° |
| 2026-05-07 16:48 | 39.38694 | 39.95245 | 37139 ft | 512 kts | 109° |
| 2026-05-07 16:48 | 39.36419 | 40.03959 | 37152 ft | 512 kts | 110° |
| 2026-05-07 16:49 | 39.34131 | 40.12666 | 37153 ft | 512 kts | 111° |
| 2026-05-07 16:49 | 39.31093 | 40.20920 | 37145 ft | 509 kts | 122° |
| 2026-05-07 16:50 | 39.27030 | 40.28364 | 37151 ft | 506 kts | 130° |
| 2026-05-07 16:50 | 39.22705 | 40.35537 | 37133 ft | 507 kts | 130° |
| 2026-05-07 16:51 | 39.18386 | 40.42732 | 37133 ft | 507 kts | 130° |
| 2026-05-07 16:51 | 39.14089 | 40.49943 | 37143 ft | 507 kts | 129° |
| 2026-05-07 16:52 | 39.09820 | 40.57115 | 37134 ft | 508 kts | 130° |
| 2026-05-07 16:52 | 39.05503 | 40.64350 | 37145 ft | 508 kts | 130° |
| 2026-05-07 16:53 | 39.01919 | 40.70340 | 37140 ft | 509 kts | 130° |
| 2026-05-07 16:53 | 38.97593 | 40.77556 | 37135 ft | 509 kts | 130° |
| 2026-05-07 16:54 | 38.93264 | 40.84760 | 37142 ft | 509 kts | 130° |
| 2026-05-07 16:54 | 38.88926 | 40.91961 | 37143 ft | 508 kts | 130° |
| 2026-05-07 16:55 | 38.84599 | 40.99128 | 37148 ft | 507 kts | 131° |
| 2026-05-07 16:55 | 38.80273 | 41.06278 | 37156 ft | 507 kts | 131° |
| 2026-05-07 16:56 | 38.75973 | 41.13372 | 37148 ft | 507 kts | 131° |
| 2026-05-07 16:56 | 38.69471 | 41.24066 | 37136 ft | 506 kts | 131° |
| 2026-05-07 16:57 | 38.65160 | 41.31137 | 37138 ft | 506 kts | 131° |
| 2026-05-07 16:57 | 38.60827 | 41.38230 | 37117 ft | 506 kts | 132° |
| 2026-05-07 16:58 | 38.56556 | 41.45378 | 37144 ft | 506 kts | 130° |
| 2026-05-07 16:58 | 38.52405 | 41.52654 | 37134 ft | 507 kts | 130° |
| 2026-05-07 16:59 | 38.48253 | 41.59913 | 37123 ft | 506 kts | 130° |
| 2026-05-07 16:59 | 38.44081 | 41.67134 | 37132 ft | 505 kts | 131° |
| 2026-05-07 17:00 | 38.39903 | 41.74334 | 37106 ft | 505 kts | 131° |
| 2026-05-07 17:00 | 38.35733 | 41.81513 | 37132 ft | 504 kts | 131° |
| 2026-05-07 17:01 | 38.31543 | 41.88707 | 37141 ft | 505 kts | 131° |
| 2026-05-07 17:01 | 38.27352 | 41.95890 | 37143 ft | 505 kts | 132° |
| 2026-05-07 17:02 | 38.23151 | 42.03082 | 37141 ft | 507 kts | 132° |
| 2026-05-07 17:02 | 38.18939 | 42.10274 | 37133 ft | 506 kts | 132° |
| 2026-05-07 17:03 | 38.14733 | 42.17441 | 37129 ft | 505 kts | 133° |
| 2026-05-07 17:03 | 38.10553 | 42.24543 | 37147 ft | 505 kts | 133° |
| 2026-05-07 17:04 | 38.06325 | 42.31685 | 37140 ft | 506 kts | 133° |
| 2026-05-07 17:04 | 38.02092 | 42.38816 | 37110 ft | 505 kts | 133° |
| 2026-05-07 17:05 | 37.97869 | 42.45929 | 37147 ft | 505 kts | 133° |
| 2026-05-07 17:05 | 37.93637 | 42.53044 | 37124 ft | 505 kts | 133° |
| 2026-05-07 17:06 | 37.89405 | 42.60135 | 37137 ft | 504 kts | 133° |
| 2026-05-07 17:06 | 37.85251 | 42.67240 | 37172 ft | 508 kts | 129° |
| 2026-05-07 17:07 | 37.81557 | 42.74905 | 37137 ft | 511 kts | 126° |
| 2026-05-07 17:07 | 37.77928 | 42.82641 | 37158 ft | 512 kts | 127° |
| 2026-05-07 17:08 | 37.74273 | 42.90354 | 37138 ft | 511 kts | 127° |
| 2026-05-07 17:08 | 37.70599 | 42.98019 | 37147 ft | 509 kts | 127° |
| 2026-05-07 17:09 | 37.66929 | 43.05650 | 37164 ft | 508 kts | 128° |
| 2026-05-07 17:09 | 37.63235 | 43.13281 | 37127 ft | 510 kts | 128° |
| 2026-05-07 17:10 | 37.59536 | 43.20927 | 37157 ft | 510 kts | 128° |
| 2026-05-07 17:10 | 37.55842 | 43.28576 | 37145 ft | 511 kts | 128° |
| 2026-05-07 17:11 | 37.52132 | 43.36221 | 37125 ft | 511 kts | 128° |
| 2026-05-07 17:11 | 37.48417 | 43.43850 | 37116 ft | 510 kts | 128° |
| 2026-05-07 17:12 | 37.44709 | 43.51457 | 37132 ft | 509 kts | 128° |
| 2026-05-07 17:12 | 37.40993 | 43.59059 | 37098 ft | 509 kts | 128° |
| 2026-05-07 17:13 | 37.37308 | 43.66582 | 37144 ft | 508 kts | 128° |
| 2026-05-07 17:13 | 37.33596 | 43.74137 | 37128 ft | 509 kts | 128° |
| 2026-05-07 17:14 | 37.29875 | 43.81698 | 37120 ft | 509 kts | 128° |
| 2026-05-07 17:14 | 37.26063 | 43.89141 | 37115 ft | 499 kts | 136° |
| 2026-05-07 17:15 | 37.23666 | 43.92212 | 37114 ft | 486 kts | 148° |
| 2026-05-07 17:15 | 37.20940 | 43.94645 | 37130 ft | 476 kts | 157° |
| 2026-05-07 17:15 | 37.18003 | 43.96447 | 37114 ft | 463 kts | 167° |
| 2026-05-07 17:15 | 37.14975 | 43.97806 | 37126 ft | 463 kts | 167° |
| 2026-05-07 17:16 | 37.08934 | 44.00519 | 37143 ft | 466 kts | 167° |
| 2026-05-07 17:16 | 37.02821 | 44.03334 | 37089 ft | 468 kts | 167° |
| 2026-05-07 17:17 | 36.96711 | 44.06185 | 37095 ft | 468 kts | 166° |
| 2026-05-07 17:17 | 36.90603 | 44.09033 | 37083 ft | 468 kts | 167° |
| 2026-05-07 17:18 | 36.84519 | 44.11861 | 37084 ft | 466 kts | 167° |
| 2026-05-07 17:18 | 36.78449 | 44.14676 | 37090 ft | 464 kts | 167° |
| 2026-05-07 17:19 | 36.72400 | 44.17471 | 37053 ft | 462 kts | 167° |
| 2026-05-07 17:19 | 36.66407 | 44.20228 | 37103 ft | 462 kts | 167° |
| 2026-05-07 17:20 | 36.60358 | 44.23003 | 37087 ft | 463 kts | 167° |
| 2026-05-07 17:20 | 36.54315 | 44.25775 | 37080 ft | 462 kts | 167° |
| 2026-05-07 17:21 | 36.48275 | 44.28541 | 37080 ft | 462 kts | 167° |
| 2026-05-07 17:21 | 36.42231 | 44.31305 | 37049 ft | 463 kts | 167° |
| 2026-05-07 17:22 | 36.36210 | 44.34056 | 37099 ft | 460 kts | 167° |
| 2026-05-07 17:22 | 36.30225 | 44.36782 | 37071 ft | 462 kts | 167° |
| 2026-05-07 17:23 | 36.24194 | 44.39523 | 37065 ft | 461 kts | 167° |
| 2026-05-07 17:23 | 36.18169 | 44.42261 | 37086 ft | 461 kts | 167° |
| 2026-05-07 17:24 | 36.12137 | 44.44997 | 37063 ft | 461 kts | 167° |
| 2026-05-07 17:24 | 36.06124 | 44.47720 | 37055 ft | 460 kts | 168° |
| 2026-05-07 17:25 | 36.00119 | 44.50434 | 37060 ft | 459 kts | 167° |
| 2026-05-07 17:25 | 35.94114 | 44.53144 | 37045 ft | 458 kts | 168° |
| 2026-05-07 17:26 | 35.88162 | 44.55826 | 37056 ft | 456 kts | 168° |
| 2026-05-07 17:26 | 35.84954 | 44.57270 | 37051 ft | 456 kts | 168° |
| 2026-05-07 17:27 | 35.78997 | 44.59943 | 37040 ft | 455 kts | 168° |
| 2026-05-07 17:27 | 35.73041 | 44.62611 | 37050 ft | 455 kts | 168° |
| 2026-05-07 17:28 | 35.67096 | 44.65273 | 37061 ft | 455 kts | 168° |
| 2026-05-07 17:28 | 35.61135 | 44.67940 | 37046 ft | 455 kts | 168° |
| 2026-05-07 17:29 | 35.55187 | 44.70597 | 37052 ft | 454 kts | 168° |
| 2026-05-07 17:29 | 35.49251 | 44.73250 | 37039 ft | 454 kts | 168° |
| 2026-05-07 17:30 | 35.43316 | 44.75895 | 37059 ft | 453 kts | 168° |
| 2026-05-07 17:30 | 35.37385 | 44.78530 | 37058 ft | 453 kts | 168° |
| 2026-05-07 17:31 | 35.31455 | 44.81161 | 37047 ft | 453 kts | 168° |
| 2026-05-07 17:31 | 35.25563 | 44.83772 | 37047 ft | 453 kts | 168° |
| 2026-05-07 17:32 | 35.19640 | 44.86391 | 37056 ft | 452 kts | 168° |
| 2026-05-07 17:32 | 35.14681 | 44.88582 | 37050 ft | 452 kts | 168° |
| 2026-05-07 17:33 | 35.07794 | 44.91619 | 37045 ft | 453 kts | 168° |
| 2026-05-07 17:33 | 35.01867 | 44.94230 | 37045 ft | 452 kts | 168° |
| 2026-05-07 17:34 | 34.95943 | 44.96834 | 37048 ft | 452 kts | 168° |
| 2026-05-07 17:34 | 34.90023 | 44.99433 | 37009 ft | 452 kts | 168° |
| 2026-05-07 17:35 | 34.84111 | 45.02027 | 37033 ft | 451 kts | 169° |
| 2026-05-07 17:35 | 34.78215 | 45.04606 | 37040 ft | 450 kts | 169° |
| 2026-05-07 17:36 | 34.72310 | 45.07186 | 37025 ft | 450 kts | 169° |
| 2026-05-07 17:36 | 34.66422 | 45.09755 | 37033 ft | 450 kts | 169° |
| 2026-05-07 17:37 | 34.60538 | 45.12318 | 37031 ft | 449 kts | 169° |
| 2026-05-07 17:37 | 34.54684 | 45.14865 | 37019 ft | 449 kts | 169° |
| 2026-05-07 17:38 | 34.48737 | 45.16737 | 37030 ft | 437 kts | 178° |
| 2026-05-07 17:38 | 34.42746 | 45.17457 | 37003 ft | 430 kts | 184° |
| 2026-05-07 17:39 | 34.37784 | 45.17769 | 37018 ft | 429 kts | 184° |
| 2026-05-07 17:39 | 34.31815 | 45.18152 | 37023 ft | 430 kts | 184° |
| 2026-05-07 17:40 | 34.25835 | 45.18550 | 37019 ft | 431 kts | 184° |
| 2026-05-07 17:40 | 34.19855 | 45.18956 | 37019 ft | 430 kts | 184° |
| 2026-05-07 17:41 | 34.13870 | 45.19364 | 37018 ft | 431 kts | 184° |
| 2026-05-07 17:41 | 34.07883 | 45.19769 | 37012 ft | 431 kts | 184° |
| 2026-05-07 17:42 | 34.01908 | 45.20175 | 37016 ft | 430 kts | 184° |
| 2026-05-07 17:42 | 33.95940 | 45.20579 | 37014 ft | 429 kts | 184° |
| 2026-05-07 17:43 | 33.90016 | 45.20979 | 37017 ft | 429 kts | 184° |
| 2026-05-07 17:43 | 33.84059 | 45.21381 | 37017 ft | 428 kts | 184° |
| 2026-05-07 17:44 | 33.78119 | 45.21781 | 37022 ft | 427 kts | 184° |
| 2026-05-07 17:44 | 33.72183 | 45.22180 | 37030 ft | 427 kts | 184° |
| 2026-05-07 17:45 | 33.66239 | 45.22579 | 37043 ft | 427 kts | 184° |
| 2026-05-07 17:45 | 33.60296 | 45.22978 | 37040 ft | 427 kts | 184° |
| 2026-05-07 17:46 | 33.54352 | 45.23376 | 37044 ft | 428 kts | 184° |
| 2026-05-07 17:46 | 33.48408 | 45.23774 | 37037 ft | 427 kts | 184° |
| 2026-05-07 17:47 | 33.42508 | 45.24167 | 37052 ft | 427 kts | 184° |
| 2026-05-07 17:47 | 33.36567 | 45.24563 | 37055 ft | 427 kts | 184° |
| 2026-05-07 17:48 | 33.30665 | 45.25992 | 37050 ft | 445 kts | 168° |
| 2026-05-07 17:48 | 33.25064 | 45.29446 | 37039 ft | 467 kts | 154° |
| 2026-05-07 17:49 | 33.19941 | 45.34307 | 37010 ft | 471 kts | 151° |
| 2026-05-07 17:49 | 33.14863 | 45.39244 | 37054 ft | 470 kts | 152° |
| 2026-05-07 17:50 | 33.09792 | 45.44071 | 37053 ft | 468 kts | 152° |
| 2026-05-07 17:50 | 33.04678 | 45.48877 | 37036 ft | 467 kts | 153° |
| 2026-05-07 17:51 | 32.99570 | 45.53664 | 37040 ft | 467 kts | 153° |
| 2026-05-07 17:51 | 32.94467 | 45.58445 | 37055 ft | 467 kts | 153° |
| 2026-05-07 17:52 | 32.89365 | 45.63220 | 37045 ft | 466 kts | 153° |
| 2026-05-07 17:52 | 32.84262 | 45.67988 | 37045 ft | 466 kts | 153° |
| 2026-05-07 17:53 | 32.79154 | 45.72753 | 37013 ft | 466 kts | 153° |
| 2026-05-07 17:53 | 32.74055 | 45.77508 | 37031 ft | 466 kts | 153° |
| 2026-05-07 17:54 | 32.68949 | 45.82261 | 37043 ft | 466 kts | 153° |
| 2026-05-07 17:54 | 32.63838 | 45.87013 | 37027 ft | 467 kts | 153° |
| 2026-05-07 17:55 | 32.58720 | 45.91764 | 37034 ft | 467 kts | 153° |
| 2026-05-07 17:55 | 32.53628 | 45.96483 | 37063 ft | 469 kts | 153° |
| 2026-05-07 17:56 | 32.51050 | 45.98868 | 37269 ft | 470 kts | 153° |
| 2026-05-07 17:56 | 32.48473 | 46.01252 | 37621 ft | 469 kts | 153° |
| 2026-05-07 17:56 | 32.45902 | 46.03633 | 38002 ft | 468 kts | 154° |
| 2026-05-07 17:56 | 32.43344 | 46.06000 | 38349 ft | 466 kts | 154° |
| 2026-05-07 17:57 | 32.40785 | 46.08364 | 38665 ft | 466 kts | 154° |
| 2026-05-07 17:57 | 32.39093 | 46.09925 | 38820 ft | 466 kts | 154° |
| 2026-05-07 17:57 | 32.35658 | 46.13089 | 38940 ft | 469 kts | 154° |
| 2026-05-07 17:57 | 32.33079 | 46.15459 | 38986 ft | 470 kts | 154° |
| 2026-05-07 17:58 | 32.27917 | 46.20211 | 39018 ft | 469 kts | 154° |
| 2026-05-07 17:58 | 32.22798 | 46.24917 | 39028 ft | 469 kts | 154° |
| 2026-05-07 17:59 | 32.17649 | 46.29642 | 39026 ft | 468 kts | 154° |
| 2026-05-07 17:59 | 32.12500 | 46.34358 | 39014 ft | 468 kts | 154° |
| 2026-05-07 18:00 | 32.07351 | 46.39066 | 39003 ft | 468 kts | 154° |
| 2026-05-07 18:00 | 32.02196 | 46.43775 | 39000 ft | 468 kts | 154° |
| 2026-05-07 18:01 | 31.97040 | 46.48476 | 38999 ft | 469 kts | 154° |
| 2026-05-07 18:01 | 31.91872 | 46.53182 | 38981 ft | 470 kts | 154° |
| 2026-05-07 18:02 | 31.84107 | 46.60242 | 38977 ft | 471 kts | 154° |
| 2026-05-07 18:03 | 31.78918 | 46.64950 | 38966 ft | 471 kts | 154° |
| 2026-05-07 18:03 | 31.73756 | 46.69627 | 38974 ft | 472 kts | 154° |
| 2026-05-07 18:04 | 31.68549 | 46.74338 | 38970 ft | 472 kts | 154° |
| 2026-05-07 18:04 | 31.63337 | 46.79047 | 38961 ft | 472 kts | 154° |
| 2026-05-07 18:05 | 31.58119 | 46.83755 | 38966 ft | 473 kts | 154° |
| 2026-05-07 18:05 | 31.52889 | 46.88466 | 38964 ft | 473 kts | 154° |
| 2026-05-07 18:06 | 31.47667 | 46.93164 | 38954 ft | 473 kts | 154° |
| 2026-05-07 18:06 | 31.42440 | 46.97859 | 38958 ft | 474 kts | 154° |
| 2026-05-07 18:07 | 31.37204 | 47.02555 | 38959 ft | 474 kts | 154° |
| 2026-05-07 18:07 | 31.31965 | 47.07247 | 38954 ft | 474 kts | 154° |
| 2026-05-07 18:08 | 31.26760 | 47.11902 | 38958 ft | 474 kts | 154° |
| 2026-05-07 18:08 | 31.21519 | 47.16583 | 38939 ft | 475 kts | 154° |
| 2026-05-07 18:09 | 31.16268 | 47.21266 | 38952 ft | 475 kts | 154° |
| 2026-05-07 18:09 | 31.11018 | 47.25941 | 38953 ft | 475 kts | 154° |
| 2026-05-07 18:10 | 31.05763 | 47.30615 | 38933 ft | 475 kts | 155° |
| 2026-05-07 18:10 | 31.00515 | 47.35276 | 38946 ft | 474 kts | 155° |
| 2026-05-07 18:11 | 30.95263 | 47.39934 | 38939 ft | 474 kts | 155° |
| 2026-05-07 18:11 | 30.90004 | 47.44590 | 38931 ft | 474 kts | 155° |
| 2026-05-07 18:12 | 30.84744 | 47.49244 | 38937 ft | 475 kts | 155° |
| 2026-05-07 18:12 | 30.79667 | 47.54326 | 38935 ft | 484 kts | 150° |
| 2026-05-07 18:13 | 30.74680 | 47.59594 | 38928 ft | 484 kts | 150° |
| 2026-05-07 18:13 | 30.69683 | 47.64855 | 38917 ft | 485 kts | 150° |
| 2026-05-07 18:14 | 30.64699 | 47.70063 | 38915 ft | 485 kts | 150° |
| 2026-05-07 18:14 | 30.59672 | 47.75294 | 38902 ft | 485 kts | 151° |
| 2026-05-07 18:15 | 30.54638 | 47.80524 | 38910 ft | 485 kts | 151° |
| 2026-05-07 18:15 | 30.49601 | 47.85751 | 38927 ft | 486 kts | 151° |
| 2026-05-07 18:16 | 30.44558 | 47.90977 | 38902 ft | 486 kts | 151° |
| 2026-05-07 18:16 | 30.39505 | 47.96207 | 38888 ft | 487 kts | 151° |
| 2026-05-07 18:17 | 30.34442 | 48.01440 | 38883 ft | 488 kts | 151° |
| 2026-05-07 18:17 | 30.29404 | 48.06638 | 38860 ft | 488 kts | 151° |
| 2026-05-07 18:18 | 30.24330 | 48.11867 | 38869 ft | 489 kts | 151° |
| 2026-05-07 18:18 | 30.19247 | 48.17098 | 38923 ft | 489 kts | 151° |
| 2026-05-07 18:19 | 30.14162 | 48.22323 | 38908 ft | 489 kts | 151° |
| 2026-05-07 18:19 | 30.09064 | 48.27555 | 38915 ft | 490 kts | 151° |
| 2026-05-07 18:20 | 30.03966 | 48.32778 | 38914 ft | 490 kts | 151° |
| 2026-05-07 18:20 | 29.98865 | 48.37998 | 38903 ft | 489 kts | 151° |
| 2026-05-07 18:21 | 29.93770 | 48.43204 | 38904 ft | 489 kts | 151° |
| 2026-05-07 18:21 | 29.88633 | 48.48296 | 38905 ft | 480 kts | 156° |
| 2026-05-07 18:22 | 29.83093 | 48.52275 | 38896 ft | 460 kts | 166° |
| 2026-05-07 18:22 | 29.77406 | 48.55509 | 38898 ft | 459 kts | 166° |
| 2026-05-07 18:23 | 29.71685 | 48.58774 | 38904 ft | 459 kts | 165° |
| 2026-05-07 18:23 | 29.65969 | 48.62070 | 38889 ft | 459 kts | 165° |
| 2026-05-07 18:24 | 29.60274 | 48.65364 | 38906 ft | 458 kts | 165° |
| 2026-05-07 18:24 | 29.54572 | 48.68656 | 38907 ft | 458 kts | 165° |
| 2026-05-07 18:25 | 29.48868 | 48.71944 | 38887 ft | 458 kts | 165° |
| 2026-05-07 18:25 | 29.44121 | 48.74677 | 38910 ft | 459 kts | 165° |
| 2026-05-07 18:26 | 29.38402 | 48.77965 | 38908 ft | 460 kts | 165° |
| 2026-05-07 18:26 | 29.31743 | 48.81795 | 38903 ft | 461 kts | 165° |
| 2026-05-07 18:27 | 29.26931 | 48.84559 | 38913 ft | 461 kts | 165° |
| 2026-05-07 18:27 | 29.21229 | 48.87831 | 38912 ft | 462 kts | 165° |
| 2026-05-07 18:28 | 29.15536 | 48.91315 | 38922 ft | 471 kts | 159° |
| 2026-05-07 18:28 | 29.10228 | 48.95916 | 38919 ft | 485 kts | 150° |
| 2026-05-07 18:29 | 29.05127 | 49.00986 | 38908 ft | 485 kts | 150° |
| 2026-05-07 18:29 | 29.00017 | 49.06022 | 38913 ft | 484 kts | 151° |
| 2026-05-07 18:30 | 28.94896 | 49.11010 | 38899 ft | 484 kts | 151° |
| 2026-05-07 18:30 | 28.89763 | 49.15996 | 38911 ft | 484 kts | 151° |
| 2026-05-07 18:31 | 28.84657 | 49.21039 | 38908 ft | 487 kts | 149° |
| 2026-05-07 18:31 | 28.79629 | 49.26229 | 38894 ft | 488 kts | 148° |
| 2026-05-07 18:32 | 28.74591 | 49.31423 | 38898 ft | 488 kts | 149° |
| 2026-05-07 18:32 | 28.69537 | 49.36589 | 38904 ft | 489 kts | 149° |
| 2026-05-07 18:33 | 28.64456 | 49.41770 | 38885 ft | 490 kts | 148° |
| 2026-05-07 18:33 | 28.59777 | 49.47534 | 38912 ft | 508 kts | 137° |
| 2026-05-07 18:34 | 28.55895 | 49.54389 | 38910 ft | 520 kts | 130° |
| 2026-05-07 18:34 | 28.52231 | 49.61497 | 38899 ft | 521 kts | 130° |
| 2026-05-07 18:35 | 28.48510 | 49.68552 | 38900 ft | 520 kts | 130° |
| 2026-05-07 18:35 | 28.44743 | 49.75587 | 38891 ft | 519 kts | 131° |
| 2026-05-07 18:35 | 28.42646 | 49.78875 | 38886 ft | 508 kts | 140° |
| 2026-05-07 18:36 | 28.40258 | 49.81789 | 38902 ft | 499 kts | 146° |
| 2026-05-07 18:36 | 28.34932 | 49.86602 | 38894 ft | 483 kts | 156° |
| 2026-05-07 18:37 | 28.29351 | 49.90761 | 38891 ft | 483 kts | 156° |
| 2026-05-07 18:37 | 28.23732 | 49.94956 | 38900 ft | 483 kts | 156° |
| 2026-05-07 18:38 | 28.18127 | 49.99186 | 38879 ft | 484 kts | 155° |
| 2026-05-07 18:38 | 28.12528 | 50.03428 | 38897 ft | 484 kts | 155° |
| 2026-05-07 18:39 | 28.06957 | 50.07645 | 38897 ft | 484 kts | 155° |
| 2026-05-07 18:39 | 28.01356 | 50.11876 | 38878 ft | 484 kts | 155° |
| 2026-05-07 18:40 | 27.95757 | 50.16099 | 38890 ft | 483 kts | 155° |
| 2026-05-07 18:40 | 27.90198 | 50.20286 | 38885 ft | 483 kts | 155° |
| 2026-05-07 18:41 | 27.84612 | 50.24489 | 38892 ft | 482 kts | 155° |
| 2026-05-07 18:41 | 27.79025 | 50.28688 | 38886 ft | 482 kts | 155° |
| 2026-05-07 18:42 | 27.73448 | 50.32873 | 38893 ft | 481 kts | 155° |
| 2026-05-07 18:42 | 27.67865 | 50.37058 | 38888 ft | 481 kts | 155° |
| 2026-05-07 18:43 | 27.62283 | 50.41236 | 38879 ft | 481 kts | 154° |
| 2026-05-07 18:43 | 27.56745 | 50.45490 | 38883 ft | 482 kts | 154° |
| 2026-05-07 18:44 | 27.51227 | 50.49772 | 38886 ft | 482 kts | 154° |
| 2026-05-07 18:44 | 27.45695 | 50.54036 | 38877 ft | 481 kts | 154° |
| 2026-05-07 18:45 | 27.40157 | 50.58276 | 38874 ft | 481 kts | 154° |
| 2026-05-07 18:45 | 27.34644 | 50.62477 | 38869 ft | 481 kts | 154° |
| 2026-05-07 18:46 | 27.29093 | 50.66705 | 38862 ft | 482 kts | 154° |
| 2026-05-07 18:46 | 27.23537 | 50.70934 | 38857 ft | 482 kts | 154° |
| 2026-05-07 18:47 | 27.17975 | 50.75164 | 38865 ft | 483 kts | 154° |
| 2026-05-07 18:47 | 27.12647 | 50.79875 | 38859 ft | 496 kts | 143° |
| 2026-05-07 18:48 | 27.07816 | 50.85448 | 38852 ft | 499 kts | 142° |
| 2026-05-07 18:48 | 27.02956 | 50.91001 | 38877 ft | 498 kts | 142° |
| 2026-05-07 18:49 | 26.98434 | 50.97011 | 38857 ft | 511 kts | 131° |
| 2026-05-07 18:49 | 26.94691 | 51.03844 | 38857 ft | 516 kts | 128° |
| 2026-05-07 18:50 | 26.90991 | 51.10674 | 38860 ft | 515 kts | 128° |
| 2026-05-07 18:50 | 26.87398 | 51.17630 | 38855 ft | 520 kts | 122° |
| 2026-05-07 18:51 | 26.84801 | 51.25256 | 38862 ft | 527 kts | 114° |
| 2026-05-07 18:51 | 26.82565 | 51.33068 | 38852 ft | 526 kts | 114° |
| 2026-05-07 18:52 | 26.80286 | 51.40857 | 38837 ft | 525 kts | 114° |
| 2026-05-07 18:52 | 26.77970 | 51.48596 | 38840 ft | 524 kts | 114° |
| 2026-05-07 18:53 | 26.75649 | 51.56315 | 38841 ft | 523 kts | 114° |
| 2026-05-07 18:53 | 26.73328 | 51.64039 | 38845 ft | 523 kts | 114° |
| 2026-05-07 18:54 | 26.70992 | 51.71745 | 38847 ft | 523 kts | 114° |
| 2026-05-07 18:54 | 26.68670 | 51.79400 | 38831 ft | 523 kts | 114° |
| 2026-05-07 18:55 | 26.66341 | 51.87101 | 38837 ft | 522 kts | 114° |
| 2026-05-07 18:55 | 26.63969 | 51.94765 | 38836 ft | 521 kts | 115° |
| 2026-05-07 18:56 | 26.61478 | 52.02366 | 38837 ft | 521 kts | 116° |
| 2026-05-07 18:56 | 26.58975 | 52.09949 | 38834 ft | 521 kts | 115° |
| 2026-05-07 18:57 | 26.56481 | 52.17556 | 38825 ft | 521 kts | 115° |
| 2026-05-07 18:57 | 26.53999 | 52.25162 | 38833 ft | 521 kts | 115° |
| 2026-05-07 18:58 | 26.51516 | 52.32763 | 38829 ft | 520 kts | 115° |
| 2026-05-07 18:58 | 26.49026 | 52.40302 | 38830 ft | 521 kts | 115° |
| 2026-05-07 18:59 | 26.46520 | 52.47894 | 38834 ft | 521 kts | 115° |
| 2026-05-07 18:59 | 26.44020 | 52.55478 | 38817 ft | 521 kts | 115° |
| 2026-05-07 19:00 | 26.41512 | 52.63066 | 38821 ft | 521 kts | 115° |
| 2026-05-07 19:00 | 26.39022 | 52.70656 | 38825 ft | 521 kts | 115° |
| 2026-05-07 19:01 | 26.36542 | 52.78243 | 38840 ft | 521 kts | 115° |
| 2026-05-07 19:01 | 26.34038 | 52.85818 | 38842 ft | 520 kts | 115° |
| 2026-05-07 19:02 | 26.31520 | 52.93327 | 38825 ft | 520 kts | 115° |
| 2026-05-07 19:02 | 26.28985 | 53.00874 | 38837 ft | 520 kts | 115° |
| 2026-05-07 19:03 | 26.26450 | 53.08423 | 38830 ft | 520 kts | 115° |
| 2026-05-07 19:03 | 26.23917 | 53.15956 | 38833 ft | 520 kts | 115° |
| 2026-05-07 19:04 | 26.21377 | 53.23492 | 38830 ft | 520 kts | 115° |
| 2026-05-07 19:04 | 26.18832 | 53.31032 | 38812 ft | 520 kts | 115° |
| 2026-05-07 19:05 | 26.16042 | 53.38427 | 38825 ft | 517 kts | 118° |
| 2026-05-07 19:05 | 26.13046 | 53.45691 | 38824 ft | 516 kts | 119° |
| 2026-05-07 19:05 | 26.11547 | 53.49316 | 38449 ft | 523 kts | 119° |
| 2026-05-07 19:06 | 26.10020 | 53.53029 | 37618 ft | 528 kts | 118° |
| 2026-05-07 19:06 | 26.07014 | 53.60411 | 36093 ft | 526 kts | 118° |
| 2026-05-07 19:06 | 26.05501 | 53.64131 | 35271 ft | 526 kts | 118° |
| 2026-05-07 19:07 | 26.03990 | 53.67839 | 34330 ft | 525 kts | 118° |
| 2026-05-07 19:07 | 26.02496 | 53.71502 | 33310 ft | 515 kts | 118° |
| 2026-05-07 19:07 | 26.01029 | 53.75095 | 32269 ft | 506 kts | 118° |
| 2026-05-07 19:07 | 25.99605 | 53.78633 | 31278 ft | 499 kts | 117° |
| 2026-05-07 19:08 | 25.98219 | 53.82167 | 30307 ft | 503 kts | 117° |
| 2026-05-07 19:08 | 25.96815 | 53.85766 | 29597 ft | 514 kts | 116° |
| 2026-05-07 19:08 | 25.95378 | 53.89446 | 28789 ft | 520 kts | 116° |
| 2026-05-07 19:08 | 25.93941 | 53.93117 | 28044 ft | 515 kts | 116° |
| 2026-05-07 19:09 | 25.92517 | 53.96740 | 27323 ft | 509 kts | 116° |
| 2026-05-07 19:09 | 25.91087 | 54.00315 | 26619 ft | 503 kts | 117° |
| 2026-05-07 19:09 | 25.89568 | 54.03794 | 25909 ft | 497 kts | 119° |
| 2026-05-07 19:09 | 25.88015 | 54.07193 | 25210 ft | 491 kts | 119° |
| 2026-05-07 19:10 | 25.86472 | 54.10563 | 24499 ft | 487 kts | 118° |
| 2026-05-07 19:10 | 25.84962 | 54.13910 | 23797 ft | 483 kts | 118° |
| 2026-05-07 19:10 | 25.83500 | 54.17194 | 23033 ft | 472 kts | 118° |
| 2026-05-07 19:10 | 25.82101 | 54.20382 | 22272 ft | 448 kts | 117° |
| 2026-05-07 19:11 | 25.80984 | 54.23522 | 21599 ft | 427 kts | 111° |
| 2026-05-07 19:11 | 25.80062 | 54.26575 | 20991 ft | 408 kts | 110° |
| 2026-05-07 19:11 | 25.79186 | 54.29498 | 20402 ft | 393 kts | 111° |
| 2026-05-07 19:11 | 25.78324 | 54.32333 | 19859 ft | 386 kts | 111° |
| 2026-05-07 19:12 | 25.77454 | 54.35158 | 19302 ft | 390 kts | 110° |
| 2026-05-07 19:12 | 25.76584 | 54.37978 | 18734 ft | 404 kts | 110° |
| 2026-05-07 19:12 | 25.75636 | 54.41042 | 18095 ft | 409 kts | 110° |
| 2026-05-07 19:12 | 25.75029 | 54.43002 | 17632 ft | 402 kts | 110° |
| 2026-05-07 19:13 | 25.73846 | 54.46838 | 16808 ft | 383 kts | 110° |
| 2026-05-07 19:13 | 25.73000 | 54.49576 | 16243 ft | 370 kts | 110° |
| 2026-05-07 19:13 | 25.72450 | 54.51353 | 15872 ft | 363 kts | 110° |
| 2026-05-07 19:13 | 25.71345 | 54.54912 | 15178 ft | 372 kts | 110° |
| 2026-05-07 19:14 | 25.70778 | 54.56734 | 14823 ft | 382 kts | 110° |
| 2026-05-07 19:14 | 25.69895 | 54.59568 | 14240 ft | 395 kts | 109° |
| 2026-05-07 19:14 | 25.68692 | 54.63373 | 13551 ft | 393 kts | 110° |
| 2026-05-07 19:14 | 25.68075 | 54.65297 | 13187 ft | 390 kts | 110° |
| 2026-05-07 19:15 | 25.67179 | 54.68077 | 13037 ft | 375 kts | 110° |
| 2026-05-07 19:15 | 25.66318 | 54.70755 | 12870 ft | 362 kts | 110° |
| 2026-05-07 19:15 | 25.65497 | 54.73311 | 12704 ft | 350 kts | 110° |
| 2026-05-07 19:15 | 25.64685 | 54.75841 | 12565 ft | 338 kts | 109° |
| 2026-05-07 19:16 | 25.63911 | 54.78253 | 12422 ft | 327 kts | 109° |
| 2026-05-07 19:16 | 25.63170 | 54.80564 | 12280 ft | 317 kts | 109° |
| 2026-05-07 19:16 | 25.62440 | 54.82833 | 12164 ft | 307 kts | 110° |
| 2026-05-07 19:16 | 25.61733 | 54.85028 | 12040 ft | 297 kts | 110° |
| 2026-05-07 19:17 | 25.61022 | 54.87188 | 11535 ft | 302 kts | 112° |
| 2026-05-07 19:17 | 25.60181 | 54.89380 | 10788 ft | 316 kts | 114° |
| 2026-05-07 19:17 | 25.59272 | 54.91635 | 10238 ft | 322 kts | 114° |
| 2026-05-07 19:17 | 25.58354 | 54.93916 | 9727 ft | 325 kts | 114° |
| 2026-05-07 19:18 | 25.57438 | 54.96216 | 9203 ft | 328 kts | 114° |
| 2026-05-07 19:18 | 25.56523 | 54.98533 | 8745 ft | 328 kts | 114° |
| 2026-05-07 19:18 | 25.55613 | 55.00842 | 8345 ft | 326 kts | 114° |
| 2026-05-07 19:18 | 25.54704 | 55.03141 | 8030 ft | 328 kts | 114° |
| 2026-05-07 19:19 | 25.53668 | 55.05414 | 8002 ft | 331 kts | 119° |
| 2026-05-07 19:19 | 25.52514 | 55.07604 | 7986 ft | 328 kts | 121° |
| 2026-05-07 19:19 | 25.51350 | 55.09764 | 7977 ft | 326 kts | 121° |
| 2026-05-07 19:19 | 25.50200 | 55.11922 | 7980 ft | 326 kts | 120° |
| 2026-05-07 19:20 | 25.49060 | 55.14095 | 7986 ft | 327 kts | 120° |
| 2026-05-07 19:20 | 25.47925 | 55.16273 | 7982 ft | 327 kts | 120° |
| 2026-05-07 19:20 | 25.46791 | 55.18455 | 7982 ft | 328 kts | 120° |
| 2026-05-07 19:20 | 25.45595 | 55.20603 | 7975 ft | 328 kts | 127° |
| 2026-05-07 19:21 | 25.44138 | 55.22504 | 7984 ft | 328 kts | 133° |
| 2026-05-07 19:21 | 25.42538 | 55.24359 | 7986 ft | 329 kts | 134° |
| 2026-05-07 19:21 | 25.40959 | 55.26194 | 7985 ft | 330 kts | 133° |
| 2026-05-07 19:21 | 25.39402 | 55.28057 | 7983 ft | 330 kts | 133° |
| 2026-05-07 19:22 | 25.37890 | 55.29899 | 7978 ft | 323 kts | 132° |
| 2026-05-07 19:22 | 25.36417 | 55.31703 | 7976 ft | 308 kts | 132° |
| 2026-05-07 19:22 | 25.35079 | 55.33468 | 7980 ft | 296 kts | 125° |
| 2026-05-07 19:22 | 25.33974 | 55.35390 | 7996 ft | 295 kts | 121° |
| 2026-05-07 19:23 | 25.32952 | 55.37320 | 7957 ft | 284 kts | 120° |
| 2026-05-07 19:23 | 25.31972 | 55.39172 | 7881 ft | 274 kts | 120° |
| 2026-05-07 19:23 | 25.31020 | 55.40949 | 7802 ft | 263 kts | 121° |
| 2026-05-07 19:23 | 25.30088 | 55.42651 | 7682 ft | 254 kts | 121° |
| 2026-05-07 19:24 | 25.29176 | 55.44295 | 7516 ft | 248 kts | 121° |
| 2026-05-07 19:24 | 25.28277 | 55.45910 | 7274 ft | 245 kts | 121° |
| 2026-05-07 19:24 | 25.27381 | 55.47518 | 6948 ft | 247 kts | 122° |
| 2026-05-07 19:24 | 25.26477 | 55.49142 | 6654 ft | 247 kts | 122° |
| 2026-05-07 19:25 | 25.25582 | 55.50750 | 6402 ft | 245 kts | 122° |
| 2026-05-07 19:25 | 25.24704 | 55.52328 | 6148 ft | 244 kts | 122° |
| 2026-05-07 19:25 | 25.23816 | 55.53925 | 5848 ft | 244 kts | 122° |
| 2026-05-07 19:25 | 25.22931 | 55.55517 | 5582 ft | 242 kts | 122° |
| 2026-05-07 19:26 | 25.22055 | 55.57091 | 5446 ft | 233 kts | 122° |
| 2026-05-07 19:26 | 25.21230 | 55.58573 | 5300 ft | 225 kts | 122° |
| 2026-05-07 19:26 | 25.20437 | 55.59998 | 5260 ft | 210 kts | 122° |
| 2026-05-07 19:26 | 25.19676 | 55.61363 | 5309 ft | 210 kts | 122° |
| 2026-05-07 19:27 | 25.18887 | 55.62781 | 5347 ft | 222 kts | 122° |
| 2026-05-07 19:27 | 25.18066 | 55.64255 | 5179 ft | 227 kts | 122° |
| 2026-05-07 19:27 | 25.17254 | 55.65712 | 5167 ft | 218 kts | 122° |
| 2026-05-07 19:27 | 25.16383 | 55.67031 | 5005 ft | 210 kts | 142° |
| 2026-05-07 19:28 | 25.15079 | 55.67664 | 4638 ft | 206 kts | 178° |
| 2026-05-07 19:28 | 25.13706 | 55.67359 | 4130 ft | 204 kts | 207° |
| 2026-05-07 19:28 | 25.12415 | 55.66601 | 3388 ft | 219 kts | 211° |
| 2026-05-07 19:28 | 25.11132 | 55.65599 | 2549 ft | 231 kts | 231° |
| 2026-05-07 19:29 | 25.10526 | 55.64051 | 2229 ft | 214 kts | 267° |
| 2026-05-07 19:29 | 25.10849 | 55.62558 | 2038 ft | 192 kts | 298° |
| 2026-05-07 19:29 | 25.11489 | 55.61384 | 1898 ft | 170 kts | 300° |
| 2026-05-07 19:29 | 25.12072 | 55.60312 | 1888 ft | 157 kts | 300° |
| 2026-05-07 19:30 | 25.12621 | 55.59312 | 1877 ft | 149 kts | 300° |
| 2026-05-07 19:30 | 25.13156 | 55.58343 | 1905 ft | 148 kts | 300° |
| 2026-05-07 19:30 | 25.13686 | 55.57387 | 1912 ft | 146 kts | 300° |
| 2026-05-07 19:30 | 25.14217 | 55.56428 | 1901 ft | 146 kts | 300° |
| 2026-05-07 19:31 | 25.14746 | 55.55474 | 1884 ft | 145 kts | 300° |
| 2026-05-07 19:31 | 25.15273 | 55.54523 | 1884 ft | 145 kts | 300° |
| 2026-05-07 19:31 | 25.15803 | 55.53567 | 1886 ft | 146 kts | 300° |
| 2026-05-07 19:31 | 25.16335 | 55.52607 | 1891 ft | 147 kts | 300° |
| 2026-05-07 19:32 | 25.16868 | 55.51644 | 1893 ft | 148 kts | 301° |
| 2026-05-07 19:32 | 25.17407 | 55.50670 | 1885 ft | 150 kts | 301° |
| 2026-05-07 19:32 | 25.17950 | 55.49690 | 1885 ft | 150 kts | 301° |
| 2026-05-07 19:32 | 25.18496 | 55.48704 | 1847 ft | 151 kts | 300° |
| 2026-05-07 19:33 | 25.19040 | 55.47720 | 1636 ft | 148 kts | 301° |
| 2026-05-07 19:33 | 25.19569 | 55.46767 | 1448 ft | 145 kts | 301° |
| 2026-05-07 19:33 | 25.20094 | 55.45814 | 1278 ft | 146 kts | 300° |
| 2026-05-07 19:33 | 25.20627 | 55.44853 | 1142 ft | 148 kts | 301° |
| 2026-05-07 19:34 | 25.21167 | 55.43880 | 1017 ft | 148 kts | 300° |
| 2026-05-07 19:34 | 25.21688 | 55.42908 | 761 ft | 149 kts | 301° |
| 2026-05-07 19:34 | 25.22229 | 55.41924 | 577 ft | 150 kts | 301° |
| 2026-05-07 19:34 | 25.22781 | 55.40923 | 369 ft | 150 kts | 302° |
| 2026-05-07 19:35 | 25.23323 | 55.39960 | 151 ft | 147 kts | 301° |
| 2026-05-07 19:35 | 25.23844 | 55.39020 | 36 ft | 135 kts | 302° |
| 2026-05-07 19:35 | 25.24283 | 55.38241 | 32 ft | 100 kts | 302° |
| 2026-05-07 19:35 | 25.24567 | 55.37729 | 27 ft | 57 kts | 301° |
| 2026-05-07 19:36 | 25.24708 | 55.37510 | 27 ft | 13 kts | 315° |
| 2026-05-07 19:36 | 25.24730 | 55.37477 | 27 ft | 15 kts | 307° |
| 2026-05-07 19:36 | 25.24786 | 55.37287 | 29 ft | 38 kts | 267° |
| 2026-05-07 19:36 | 25.24782 | 55.37149 | 28 ft | 1 kts | 276° |
| 2026-05-07 19:37 | 25.24784 | 55.37134 | 28 ft | 3 kts | 276° |
| 2026-05-07 19:37 | 25.24787 | 55.37101 | 28 ft | 5 kts | 275° |
| 2026-05-07 19:37 | 25.24790 | 55.37063 | 27 ft | 0 kts | 275° |
| 2026-05-07 19:37 | 25.24791 | 55.37053 | 27 ft | 3 kts | 275° |
| 2026-05-07 19:38 | 25.24808 | 55.36963 | 27 ft | 24 kts | 286° |
| 2026-05-07 19:38 | 25.24855 | 55.36814 | 27 ft | 17 kts | 289° |
| 2026-05-07 19:38 | 25.24868 | 55.36770 | 27 ft | 0 kts | 289° |
| 2026-05-07 19:38 | 25.24870 | 55.36764 | 27 ft | 2 kts | 289° |
| 2026-05-07 19:39 | 25.24877 | 55.36729 | 26 ft | 8 kts | 278° |
| 2026-05-07 19:39 | 25.24903 | 55.36654 | 26 ft | 13 kts | 305° |
| 2026-05-07 19:39 | 25.24924 | 55.36618 | 26 ft | 3 kts | 302° |
| 2026-05-07 19:39 | 25.24945 | 55.36583 | 26 ft | 7 kts | 305° |
| 2026-05-07 19:40 | 25.24987 | 55.36522 | 26 ft | 13 kts | 309° |
| 2026-05-07 19:40 | 25.25016 | 55.36445 | 26 ft | 4 kts | 288° |
| 2026-05-07 19:40 | 25.25019 | 55.36429 | 26 ft | 3 kts | 278° |
| 2026-05-07 19:40 | 25.25003 | 55.36390 | 26 ft | 8 kts | 232° |
| 2026-05-07 19:41 | 25.24958 | 55.36344 | 31 ft | 7 kts | 216° |
| 2026-05-07 19:41 | 25.24913 | 55.36316 | 29 ft | 5 kts | 210° |
| 2026-05-07 19:41 | 25.24894 | 55.36304 | 29 ft | 1 kts | 210° |
| 2026-05-07 19:41 | 25.24878 | 55.36293 | 31 ft | 0 kts | 211° |
| 2026-05-07 19:42 | 25.24873 | 55.36290 | 31 ft | 0 kts | 211° |